Time;durP1;ratioP1;P1;durP2;ratioP2;P2;SDS_P1;SDS_P2;PMS_P1;PMS_P2;Temp;Humidity;BMP_temperature;BMP_pressure;BME280_temperature;BME280_humidity;BME280_pressure;Samples;Min_cycle;Max_cycle;Signal;HPM_P1;HPM_P2
2023/10/30 00:01:34;;;;;;;3.53;3.23;;;;;;;22.20;60.79;96523.00;5023813;28;20255;-26
2023/10/30 00:06:38;;;;;;;3.30;3.00;;;;;;;22.20;60.80;96517.88;4991806;28;20214;-25
2023/10/30 00:09:05;;;;;;;3.50;3.10;;;;;;;22.20;60.82;96523.00;4992833;28;20230;-25
2023/10/30 00:11:31;;;;;;;3.20;2.90;;;;;;;22.20;60.77;96520.44;4992690;28;20207;-25
2023/10/30 00:13:58;;;;;;;2.80;2.50;;;;;;;22.21;60.81;96531.53;4993152;28;20253;-32
2023/10/30 00:16:24;;;;;;;3.13;2.90;;;;;;;22.20;60.83;96533.22;4986243;28;20234;-25
2023/10/30 00:18:51;;;;;;;3.47;3.17;;;;;;;22.21;60.85;96536.66;4988976;28;20203;-25
2023/10/30 00:21:18;;;;;;;3.60;3.07;;;;;;;22.20;60.65;96533.22;4982401;28;20240;-25
2023/10/30 00:23:45;;;;;;;4.03;3.50;;;;;;;22.19;60.59;96535.78;4985256;28;20200;-25
2023/10/30 00:26:12;;;;;;;3.50;3.00;;;;;;;22.18;60.76;96529.81;4991120;28;20226;-24
2023/10/30 00:28:39;;;;;;;3.60;3.30;;;;;;;22.18;60.76;96532.38;4987803;28;20290;-25
2023/10/30 00:31:05;;;;;;;3.43;3.13;;;;;;;22.16;60.83;96528.94;4988509;28;20219;-25
2023/10/30 00:33:32;;;;;;;4.50;3.60;;;;;;;22.18;60.79;96531.50;4985833;28;20215;-25
2023/10/30 00:35:58;;;;;;;3.23;2.93;;;;;;;22.18;60.95;96539.19;4991999;28;20277;-25
2023/10/30 00:38:25;;;;;;;3.20;2.90;;;;;;;22.12;60.97;96522.06;4987489;28;20593;-27
2023/10/30 00:40:52;;;;;;;3.33;3.03;;;;;;;22.18;60.87;96540.06;4989085;28;20207;-25
2023/10/30 00:43:18;;;;;;;3.37;3.07;;;;;;;22.19;60.89;96548.56;4983241;28;20218;-25
2023/10/30 00:45:45;;;;;;;3.70;3.30;;;;;;;22.19;61.00;96540.88;4982305;28;20222;-30
2023/10/30 00:48:11;;;;;;;3.40;3.10;;;;;;;22.18;60.78;96541.75;4987829;28;20211;-26
2023/10/30 00:50:38;;;;;;;3.37;3.07;;;;;;;22.19;60.69;96526.41;4992667;28;20214;-24
2023/10/30 00:53:05;;;;;;;3.43;3.10;;;;;;;22.20;60.80;96532.41;4981803;28;20227;-24
2023/10/30 00:55:31;;;;;;;3.73;3.40;;;;;;;22.20;60.84;96530.66;4987760;28;20314;-25
2023/10/30 00:57:58;;;;;;;4.10;3.23;;;;;;;22.20;60.90;96533.22;4981693;28;20306;-33
2023/10/30 01:00:24;;;;;;;3.17;2.90;;;;;;;22.20;60.86;96529.84;4988898;28;20294;-25
2023/10/30 01:02:54;;;;;;;3.20;2.90;;;;;;;22.21;60.88;96536.66;4992723;28;20199;-28
2023/10/30 01:05:21;;;;;;;3.00;2.80;;;;;;;22.20;60.77;96528.13;4992077;28;20237;-25
2023/10/30 01:07:48;;;;;;;3.30;3.00;;;;;;;22.19;60.80;96526.41;4987961;28;20805;-24
2023/10/30 01:10:14;;;;;;;3.80;2.87;;;;;;;22.19;60.74;96528.97;4981135;28;20262;-25
2023/10/30 01:12:41;;;;;;;3.37;3.07;;;;;;;22.19;60.77;96538.34;4982476;28;20237;-27
2023/10/30 01:15:08;;;;;;;3.23;2.90;;;;;;;22.18;60.84;96534.06;4983287;28;20235;-30
2023/10/30 01:17:34;;;;;;;3.50;3.20;;;;;;;22.17;60.69;96534.91;4982238;28;20237;-31
2023/10/30 01:20:03;;;;;;;3.40;3.10;;;;;;;22.17;60.75;96534.91;4979611;28;20203;-27
2023/10/30 01:22:30;;;;;;;3.53;3.23;;;;;;;22.16;60.91;96523.81;4982754;28;20333;-25
2023/10/30 01:24:56;;;;;;;3.63;3.07;;;;;;;22.18;60.96;96528.94;4983475;28;20310;-25
2023/10/30 01:27:23;;;;;;;3.53;3.00;;;;;;;22.17;60.77;96530.63;4982498;28;20618;-25
2023/10/30 01:29:50;;;;;;;3.27;2.97;;;;;;;22.17;60.83;96533.19;4982673;28;20214;-28
2023/10/30 01:32:16;;;;;;;4.60;3.27;;;;;;;22.18;60.95;96536.63;4983789;28;20199;-25
2023/10/30 01:34:44;;;;;;;3.53;3.07;;;;;;;22.18;60.93;96540.06;4982422;28;20738;-25
2023/10/30 01:37:10;;;;;;;3.03;2.73;;;;;;;22.18;60.90;96539.19;4979092;28;20211;-28
2023/10/30 01:39:37;;;;;;;3.47;3.17;;;;;;;22.18;60.96;96537.50;4983025;28;20294;-25
2023/10/30 01:42:04;;;;;;;3.40;3.10;;;;;;;22.19;60.89;96543.44;4982110;28;20269;-27
2023/10/30 01:44:30;;;;;;;3.33;2.97;;;;;;;22.19;60.87;96540.88;4989856;28;20223;-25
2023/10/30 01:46:57;;;;;;;3.30;2.97;;;;;;;22.19;60.96;96541.75;4992915;28;20281;-24
2023/10/30 01:49:23;;;;;;;3.23;2.93;;;;;;;22.20;60.81;96529.84;4992516;28;20234;-29
2023/10/30 01:51:50;;;;;;;3.77;3.30;;;;;;;22.20;60.90;96532.41;4983407;28;20270;-25
2023/10/30 01:54:16;;;;;;;3.37;3.00;;;;;;;22.06;60.80;96516.03;4984669;28;20281;-34
2023/10/30 01:56:43;;;;;;;3.20;2.90;;;;;;;22.20;60.84;96542.63;4988651;28;20213;-25
2023/10/30 01:59:10;;;;;;;3.67;3.27;;;;;;;22.19;60.72;96546.00;4993219;28;20203;-25
2023/10/30 02:01:38;;;;;;;3.20;2.90;;;;;;;22.14;60.95;96538.28;4990452;28;20652;-25
2023/10/30 02:04:05;;;;;;;2.97;2.77;;;;;;;22.17;60.89;96542.59;4992618;28;20203;-25
2023/10/30 02:06:31;;;;;;;4.13;3.33;;;;;;;22.18;60.78;96542.63;4993080;28;20203;-25
2023/10/30 02:08:58;;;;;;;3.83;2.97;;;;;;;22.18;60.77;96544.31;4995978;28;20215;-25
2023/10/30 02:11:25;;;;;;;3.53;3.07;;;;;;;22.17;60.92;96547.72;4995711;28;20203;-25
2023/10/30 02:13:55;;;;;;;3.30;3.00;;;;;;;22.17;60.87;96542.59;4994455;28;20348;-24
2023/10/30 02:16:22;;;;;;;3.40;3.10;;;;;;;22.18;60.92;96539.19;4995803;28;20278;-24
2023/10/30 02:18:48;;;;;;;3.50;3.20;;;;;;;22.17;60.95;96533.19;4995709;28;20234;-25
2023/10/30 02:21:17;;;;;;;3.40;3.10;;;;;;;22.17;60.80;96535.75;4987719;28;20286;-25
2023/10/30 02:23:43;;;;;;;3.10;2.80;;;;;;;22.18;61.03;96534.06;4978593;28;20717;-27
2023/10/30 02:26:10;;;;;;;3.90;3.17;;;;;;;22.18;60.80;96549.41;4994767;28;20231;-25
2023/10/30 02:28:37;;;;;;;3.60;3.30;;;;;;;22.18;60.82;96554.53;4995919;28;20207;-25
2023/10/30 02:31:03;;;;;;;3.53;3.10;;;;;;;22.18;60.96;96563.09;4994599;28;20199;-25
2023/10/30 02:33:30;;;;;;;3.47;3.17;;;;;;;22.18;60.80;96549.41;4995726;28;20226;-25
2023/10/30 02:35:56;;;;;;;3.00;2.70;;;;;;;22.19;61.02;96546.00;4995708;28;20223;-25
2023/10/30 02:38:23;;;;;;;3.43;3.07;;;;;;;22.18;60.87;96550.28;4991910;28;20689;-25
2023/10/30 02:40:49;;;;;;;3.33;3.03;;;;;;;22.18;60.99;96542.63;4995266;28;20234;-25
2023/10/30 02:43:18;;;;;;;2.87;2.67;;;;;;;22.18;60.82;96546.88;4995125;28;20262;-25
2023/10/30 02:45:44;;;;;;;3.37;3.00;;;;;;;22.12;60.87;96547.66;4995417;28;20648;-23
2023/10/30 02:48:11;;;;;;;3.30;3.00;;;;;;;22.17;60.77;96560.50;4995325;28;20230;-25
2023/10/30 02:50:38;;;;;;;3.50;3.20;;;;;;;22.15;60.85;96557.94;4995599;28;20202;-25
2023/10/30 02:53:04;;;;;;;3.40;3.10;;;;;;;22.15;60.74;96546.84;4986471;28;20214;-25
2023/10/30 02:55:31;;;;;;;3.50;3.20;;;;;;;22.15;61.04;96531.47;4993743;28;20320;-26
2023/10/30 02:57:58;;;;;;;3.30;3.00;;;;;;;22.14;61.01;96540.84;4987447;28;20200;-25
2023/10/30 03:00:24;;;;;;;3.70;3.23;;;;;;;22.14;60.99;96543.41;4995084;28;20688;-25
2023/10/30 03:02:51;;;;;;;3.17;2.87;;;;;;;22.14;60.99;96542.56;4989650;28;20229;-25
2023/10/30 03:05:17;;;;;;;3.40;3.10;;;;;;;22.15;60.99;96557.06;4985705;28;20314;-25
2023/10/30 03:07:44;;;;;;;3.37;3.07;;;;;;;22.15;60.95;96557.94;4994189;28;20290;-25
2023/10/30 03:10:11;;;;;;;4.37;3.40;;;;;;;22.15;61.02;96557.06;4992436;28;20306;-25
2023/10/30 03:12:37;;;;;;;3.30;3.00;;;;;;;22.16;60.95;96549.41;4986947;28;20226;-32
2023/10/30 03:15:04;;;;;;;3.40;3.10;;;;;;;22.16;60.81;96548.53;4994215;28;20596;-25
2023/10/30 03:17:31;;;;;;;3.90;3.50;;;;;;;22.16;60.89;96551.09;4993499;28;20207;-25
2023/10/30 03:19:58;;;;;;;3.80;3.43;;;;;;;22.16;60.88;96545.97;4988229;28;20253;-25
2023/10/30 03:22:24;;;;;;;3.40;3.10;;;;;;;22.17;60.85;96547.72;4994677;28;20222;-29
2023/10/30 03:24:51;;;;;;;3.47;3.17;;;;;;;22.17;60.83;96550.28;4994564;28;20251;-25
2023/10/30 03:27:17;;;;;;;3.17;2.87;;;;;;;22.17;60.92;96552.84;4994380;28;20286;-28
2023/10/30 03:29:44;;;;;;;3.07;2.77;;;;;;;22.17;60.75;96555.41;4993366;28;20473;-25
2023/10/30 03:32:10;;;;;;;3.27;2.97;;;;;;;22.17;60.64;96557.94;4994782;28;20265;-29
2023/10/30 03:34:37;;;;;;;3.60;3.07;;;;;;;22.16;60.78;96551.09;4993943;28;20661;-25
2023/10/30 03:37:03;;;;;;;3.50;3.20;;;;;;;22.15;60.72;96565.63;4991758;28;20207;-25
2023/10/30 03:39:30;;;;;;;2.97;2.73;;;;;;;22.15;60.78;96567.31;4986193;28;20246;-25
2023/10/30 03:41:56;;;;;;;3.40;3.00;;;;;;;22.14;60.94;96570.72;4992909;28;20680;-25
2023/10/30 03:44:26;;;;;;;2.90;2.60;;;;;;;22.14;60.83;96560.47;4994434;28;20226;-28
2023/10/30 03:46:52;;;;;;;2.70;2.50;;;;;;;22.14;60.89;96566.44;4984076;28;20199;-25
2023/10/30 03:49:19;;;;;;;3.80;3.50;;;;;;;22.14;60.81;96561.31;4994284;28;20230;-25
2023/10/30 03:51:46;;;;;;;3.13;2.87;;;;;;;22.15;60.90;96564.75;4992584;28;20203;-26
2023/10/30 03:54:13;;;;;;;3.30;3.00;;;;;;;22.14;60.94;96569.00;4994037;28;20269;-25
2023/10/30 03:56:40;;;;;;;3.33;2.80;;;;;;;22.14;60.93;96566.44;4993494;28;20306;-25
2023/10/30 03:59:06;;;;;;;3.00;2.70;;;;;;;22.14;60.82;96566.44;4994119;28;20714;-25
2023/10/30 04:01:35;;;;;;;3.13;2.87;;;;;;;22.14;60.93;96556.19;4987351;28;20560;-25
2023/10/30 04:04:02;;;;;;;2.97;2.70;;;;;;;22.14;60.83;96556.19;4992727;28;20569;-29
2023/10/30 04:06:29;;;;;;;2.97;2.77;;;;;;;22.15;60.82;96552.81;4992348;28;20229;-25
2023/10/30 04:08:56;;;;;;;3.17;2.90;;;;;;;22.14;60.88;96551.06;4993345;28;20650;-24
2023/10/30 04:11:23;;;;;;;3.60;3.27;;;;;;;22.15;60.87;96549.38;4990056;28;20728;-25
2023/10/30 04:13:49;;;;;;;3.50;3.07;;;;;;;22.15;60.86;96545.13;4992992;28;20261;-25
2023/10/30 04:16:16;;;;;;;3.33;3.03;;;;;;;22.14;60.77;96535.72;4992078;28;20257;-25
2023/10/30 04:18:43;;;;;;;2.87;2.67;;;;;;;22.13;60.65;96526.34;4990264;28;20202;-25
2023/10/30 04:21:10;;;;;;;3.20;2.90;;;;;;;22.14;60.72;96524.66;4981996;28;20679;-25
2023/10/30 04:23:38;;;;;;;3.13;2.83;;;;;;;22.12;60.77;96527.19;4990343;28;20199;-28
2023/10/30 04:26:04;;;;;;;3.37;3.07;;;;;;;22.13;61.05;96525.47;4993236;28;20625;-29
2023/10/30 04:28:31;;;;;;;3.27;2.97;;;;;;;22.12;60.65;96524.63;4993658;28;20696;-27
2023/10/30 04:30:57;;;;;;;3.20;2.90;;;;;;;22.13;60.75;96526.34;4986485;28;20286;-25
2023/10/30 04:33:24;;;;;;;3.53;2.97;;;;;;;21.91;60.79;96487.72;4993783;28;20238;-25
2023/10/30 04:35:51;;;;;;;3.43;3.13;;;;;;;22.15;60.79;96528.91;4991787;28;20636;-25
2023/10/30 04:38:17;;;;;;;3.77;3.00;;;;;;;22.15;60.81;96526.34;4993402;28;20278;-25
2023/10/30 04:40:44;;;;;;;3.00;2.70;;;;;;;22.15;60.74;96518.69;4991665;28;20203;-24
2023/10/30 04:43:11;;;;;;;3.00;2.80;;;;;;;22.15;60.70;96517.00;4992878;28;20211;-25
2023/10/30 04:45:37;;;;;;;3.20;2.90;;;;;;;22.16;60.89;96508.47;4992059;28;20288;-32
2023/10/30 04:48:04;;;;;;;3.53;3.10;;;;;;;22.15;60.67;96505.88;4993276;28;20210;-24
2023/10/30 04:50:31;;;;;;;2.90;2.60;;;;;;;22.16;60.62;96505.91;4993647;28;20203;-25
2023/10/30 04:52:57;;;;;;;3.30;3.00;;;;;;;22.16;60.72;96503.34;4986470;28;20253;-25
2023/10/30 04:55:24;;;;;;;3.20;3.00;;;;;;;22.17;60.88;96509.34;4993176;28;20318;-25
2023/10/30 04:57:51;;;;;;;3.27;2.97;;;;;;;22.18;60.70;96511.91;4992275;28;20258;-24
2023/10/30 05:00:17;;;;;;;3.43;3.13;;;;;;;22.18;60.86;96508.47;4988515;28;20200;-25
2023/10/30 05:02:46;;;;;;;3.17;2.87;;;;;;;22.17;60.80;96509.34;4991294;28;20210;-25
2023/10/30 05:05:14;;;;;;;3.43;2.97;;;;;;;22.04;60.72;96481.88;4988338;28;20230;-25
2023/10/30 05:07:44;;;;;;;3.23;2.97;;;;;;;22.17;60.71;96507.59;4992451;28;20354;-25
2023/10/30 05:10:13;;;;;;;2.90;2.60;;;;;;;22.16;60.69;96503.34;4993415;28;20203;-25
2023/10/30 05:12:40;;;;;;;2.80;2.60;;;;;;;22.16;60.44;96489.69;4993053;28;20199;-25
2023/10/30 05:15:08;;;;;;;3.40;3.10;;;;;;;22.16;60.46;96498.22;4984809;28;20223;-24
2023/10/30 05:17:37;;;;;;;4.30;3.00;;;;;;;22.16;60.48;96484.56;4993400;28;20760;-25
2023/10/30 05:20:05;;;;;;;5.23;2.47;;;;;;;22.08;60.75;96492.16;4989966;28;20195;-30
2023/10/30 05:22:34;;;;;;;3.50;2.70;;;;;;;22.16;60.53;96485.44;4993262;28;20613;-25
2023/10/30 05:25:05;;;;;;;2.90;2.70;;;;;;;22.16;60.62;96482.88;4983414;28;20227;-36
2023/10/30 05:27:32;;;;;;;2.90;2.70;;;;;;;22.17;60.67;96501.66;4992262;28;20203;-25
2023/10/30 05:29:58;;;;;;;3.23;2.93;;;;;;;22.16;60.61;96503.34;4993606;28;20293;-25
2023/10/30 05:32:25;;;;;;;3.37;2.93;;;;;;;22.14;60.09;96487.09;4994764;28;20210;-31
2023/10/30 05:34:55;;;;;;;3.23;2.83;;;;;;;22.14;58.95;96491.38;4996296;28;20219;-25
2023/10/30 05:37:22;;;;;;;3.50;3.20;;;;;;;22.13;56.57;96494.75;4995776;28;20318;-34
2023/10/30 05:39:49;;;;;;;4.30;3.20;;;;;;;22.12;55.45;96495.63;4995744;28;20207;-25
2023/10/30 05:42:16;;;;;;;3.53;3.17;;;;;;;22.11;55.12;96484.50;4996726;28;20226;-25
2023/10/30 05:44:42;;;;;;;5.90;3.50;;;;;;;22.11;54.57;96481.13;4996347;28;20254;-30
2023/10/30 05:47:09;;;;;;;3.87;3.27;;;;;;;22.10;53.56;96479.38;4996655;28;20709;-25
2023/10/30 05:49:35;;;;;;;4.60;3.30;;;;;;;22.09;53.29;96490.47;4995423;28;20199;-25
2023/10/30 05:52:02;;;;;;;4.47;3.13;;;;;;;22.08;52.68;96488.75;4996234;28;20257;-29
2023/10/30 05:54:29;;;;;;;3.47;3.17;;;;;;;22.07;52.44;96487.03;4996745;28;20305;-27
2023/10/30 05:56:56;;;;;;;3.93;3.17;;;;;;;22.05;53.21;96486.16;4988036;28;20203;-25
2023/10/30 05:59:23;;;;;;;5.63;3.77;;;;;;;22.03;53.61;96490.41;4996087;28;20624;-27
2023/10/30 06:01:49;;;;;;;5.40;3.20;;;;;;;22.06;54.43;96493.88;4995055;28;20725;-25
2023/10/30 06:04:16;;;;;;;4.03;3.00;;;;;;;22.07;55.27;96489.59;4994076;28;20210;-25
2023/10/30 06:06:42;;;;;;;3.43;2.97;;;;;;;;;;5078353;22;20242;-27
2023/10/30 06:09:09;;;;;;;3.83;3.07;;;;;;;22.07;55.83;96515.16;5014573;28;20213;-28
2023/10/30 06:11:35;;;;;;;3.47;2.80;;;;;;;;;;5015900;28;20252;-26
2023/10/30 06:14:02;;;;;;;3.60;3.30;;;;;;;22.08;56.33;96527.97;5014652;28;20259;-26
2023/10/30 06:16:29;;;;;;;4.13;3.30;;;;;;;22.08;56.59;96532.25;5008452;28;20231;-28
2023/10/30 06:18:55;;;;;;;3.50;2.97;;;;;;;;;;5013994;28;20206;-26
2023/10/30 06:21:22;;;;;;;3.40;3.10;;;;;;;22.08;56.98;96533.09;5013274;28;20206;-26
2023/10/30 06:23:48;;;;;;;3.30;2.93;;;;;;;22.09;57.26;96529.72;5005113;28;20202;-26
2023/10/30 06:26:15;;;;;;;2.97;2.67;;;;;;;22.10;57.46;96518.63;5012271;28;20245;-26
2023/10/30 06:28:42;;;;;;;3.23;2.93;;;;;;;22.11;57.55;96522.91;5014793;28;20241;-37
2023/10/30 06:31:15;;;;;;;3.30;3.00;;;;;;;22.11;57.53;96524.63;5006340;28;20203;-26
2023/10/30 06:33:42;;;;;;;3.10;2.80;;;;;;;22.11;57.57;96534.84;5012466;28;20297;-26
2023/10/30 06:36:09;;;;;;;3.30;3.00;;;;;;;22.10;57.61;96531.44;5011598;28;20229;-26
2023/10/30 06:38:36;;;;;;;3.43;3.13;;;;;;;22.10;57.71;96525.44;5004575;28;20224;-28
2023/10/30 06:41:03;;;;;;;3.10;2.80;;;;;;;22.09;57.61;96528.84;5006771;28;20585;-27
2023/10/30 06:43:30;;;;;;;3.00;2.70;;;;;;;22.11;57.58;96519.50;5012553;28;20207;-27
2023/10/30 06:46:02;;;;;;;3.70;3.23;;;;;;;22.11;57.63;96511.81;5012766;28;20214;-28
2023/10/30 06:48:30;;;;;;;3.53;3.20;;;;;;;22.11;57.75;96512.66;5012699;28;20206;-26
2023/10/30 06:50:56;;;;;;;4.00;2.93;;;;;;;22.11;57.73;96516.94;5013016;28;20206;-26
2023/10/30 06:53:23;;;;;;;4.57;2.97;;;;;;;22.05;57.98;96498.97;5007790;28;20211;-28
2023/10/30 06:55:50;;;;;;;3.20;2.90;;;;;;;22.12;57.32;96503.28;5011022;28;20300;-26
2023/10/30 06:58:17;;;;;;;4.70;2.97;;;;;;;22.09;53.35;96516.06;5013466;28;20203;-26
2023/10/30 07:00:44;;;;;;;4.33;3.40;;;;;;;22.06;51.87;96505.78;5013144;28;20253;-26
2023/10/30 07:03:11;;;;;;;4.50;3.20;;;;;;;22.04;50.66;96502.34;5013156;28;20202;-26
2023/10/30 07:05:37;;;;;;;3.40;3.03;;;;;;;22.02;50.67;96504.03;5011179;28;20233;-26
2023/10/30 07:08:04;;;;;;;3.40;3.10;;;;;;;21.99;50.03;96498.91;5006910;28;20260;-26
2023/10/30 07:10:31;;;;;;;7.53;3.40;;;;;;;22.00;51.29;96505.72;5000483;28;20203;-26
2023/10/30 07:12:57;;;;;;;4.67;3.50;;;;;;;21.99;52.10;96498.91;5008051;28;20248;-26
2023/10/30 07:15:26;;;;;;;6.20;3.10;;;;;;;21.99;52.92;96499.72;5012283;28;20222;-28
2023/10/30 07:17:57;;;;;;;4.07;3.20;;;;;;;22.00;53.67;96503.16;5011586;28;20281;-26
2023/10/30 07:20:24;;;;;;;7.13;3.00;;;;;;;22.01;54.05;96507.41;5012049;28;20682;-26
2023/10/30 07:22:50;;;;;;;5.37;3.30;;;;;;;22.02;54.45;96498.94;5011994;28;20226;-27
2023/10/30 07:25:17;;;;;;;3.60;2.70;;;;;;;22.03;54.79;96503.19;5001429;28;20218;-27
2023/10/30 07:27:43;;;;;;;5.63;3.20;;;;;;;22.03;54.93;96506.63;5008854;28;20210;-26
2023/10/30 07:30:11;;;;;;;6.70;3.07;;;;;;;22.05;55.43;96506.63;5000370;28;20389;-26
2023/10/30 07:32:37;;;;;;;4.10;3.20;;;;;;;22.08;55.64;96496.44;5008350;28;20194;-26
2023/10/30 07:35:05;;;;;;;6.67;3.10;;;;;;;22.09;56.15;96505.81;5006546;28;20218;-26
2023/10/30 07:37:32;;;;;;;4.70;3.53;;;;;;;22.10;56.25;96503.28;5010178;28;20202;-26
2023/10/30 07:39:58;;;;;;;10.20;3.00;;;;;;;22.11;56.56;96499.88;5009760;28;20198;-26
2023/10/30 07:42:25;;;;;;;7.97;3.20;;;;;;;22.14;56.66;96499.06;5010246;28;20202;-31
2023/10/30 07:44:51;;;;;;;4.87;3.30;;;;;;;22.16;56.88;96497.34;5002723;28;20246;-27
2023/10/30 07:47:18;;;;;;;5.43;3.00;;;;;;;22.17;56.97;96499.94;5008359;28;20310;-29
2023/10/30 07:50:00;;;;;;;4.50;3.43;;;;;;;22.19;57.20;96485.47;5012614;28;20202;-26
2023/10/30 07:52:28;;;;;;;6.60;3.47;;;;;;;22.21;57.17;96486.34;5005499;28;20194;-26
2023/10/30 07:54:54;;;;;;;6.27;3.00;;;;;;;22.21;57.05;96493.16;5007171;28;20218;-26
2023/10/30 07:57:21;;;;;;;4.17;3.10;;;;;;;22.21;57.31;96493.16;4990769;28;20593;-29
2023/10/30 07:59:48;;;;;;;8.10;3.27;;;;;;;22.21;57.36;96486.34;4993585;28;20293;-37
2023/10/30 08:02:14;;;;;;;5.83;3.20;;;;;;;22.21;57.36;96477.81;4998102;28;20588;-27
2023/10/30 08:04:41;;;;;;;8.83;3.10;;;;;;;22.22;57.34;96471.81;5000539;28;20349;-26
2023/10/30 08:07:08;;;;;;;5.83;3.10;;;;;;;22.21;57.61;96471.00;4997482;28;20316;-28
2023/10/30 08:09:34;;;;;;;7.37;2.73;;;;;;;22.21;57.42;96471.00;4997955;28;20293;-34
2023/10/30 08:12:02;;;;;;;7.87;3.40;;;;;;;22.21;57.38;96465.00;4996931;28;20210;-26
2023/10/30 08:14:29;;;;;;;6.93;4.00;;;;;;;22.20;57.66;96469.25;4998338;28;20210;-42
2023/10/30 08:16:55;;;;;;;5.57;3.13;;;;;;;22.21;57.64;96463.31;4997632;28;20292;-28
2023/10/30 08:19:22;;;;;;;5.97;2.93;;;;;;;22.21;57.59;96465.88;4997856;28;20759;-26
2023/10/30 08:21:48;;;;;;;9.17;2.97;;;;;;;22.22;57.66;96459.91;4998278;28;20289;-38
2023/10/30 08:24:18;;;;;;;9.57;2.87;;;;;;;22.21;57.97;96460.75;4996649;28;20201;-30
2023/10/30 08:26:45;;;;;;;8.43;3.37;;;;;;;22.22;57.75;96465.03;4998939;28;20250;-28
2023/10/30 08:29:12;;;;;;;7.30;2.90;;;;;;;22.21;57.87;96465.88;4997024;28;20210;-31
2023/10/30 08:31:38;;;;;;;5.50;3.27;;;;;;;22.22;57.85;96461.59;4994885;28;20246;-30
2023/10/30 08:34:05;;;;;;;5.87;3.07;;;;;;;22.22;57.96;96465.03;5000176;28;20205;-26
2023/10/30 08:36:32;;;;;;;4.13;2.60;;;;;;;22.22;57.85;96462.47;4998276;28;20316;-28
2023/10/30 08:38:58;;;;;;;5.03;3.00;;;;;;;22.23;57.85;96466.72;4999012;28;20309;-29
2023/10/30 08:41:26;;;;;;;8.80;2.73;;;;;;;22.22;57.89;96462.47;5000840;28;20541;-27
2023/10/30 08:43:52;;;;;;;6.53;2.60;;;;;;;22.23;58.01;96460.78;4992983;28;20207;-26
2023/10/30 08:46:19;;;;;;;4.27;2.67;;;;;;;22.22;58.23;96462.47;4995796;28;20292;-33
2023/10/30 08:48:46;;;;;;;8.23;3.13;;;;;;;22.22;58.26;96453.91;4998059;28;20277;-45
2023/10/30 08:51:13;;;;;;;5.30;2.80;;;;;;;22.24;58.19;96452.25;4997755;28;20202;-27
2023/10/30 08:53:40;;;;;;;4.73;2.93;;;;;;;22.24;58.35;96439.44;4998001;28;20207;-27
2023/10/30 08:56:07;;;;;;;7.67;3.13;;;;;;;22.25;58.09;96436.03;4994392;28;20230;-28
2023/10/30 08:58:33;;;;;;;5.20;2.80;;;;;;;22.25;58.11;96436.91;4997369;28;20329;-29
2023/10/30 09:01:00;;;;;;;4.97;2.60;;;;;;;22.26;57.83;96427.53;4995783;28;20234;-35
2023/10/30 09:03:26;;;;;;;3.73;2.70;;;;;;;22.27;57.30;96421.56;4996106;28;20210;-29
2023/10/30 09:05:53;;;;;;;5.57;3.23;;;;;;;22.26;56.98;96415.56;4999659;28;20230;-39
2023/10/30 09:08:20;;;;;;;5.87;2.70;;;;;;;22.25;57.16;96413.88;4999884;28;20480;-28
2023/10/30 09:10:48;;;;;;;5.33;2.73;;;;;;;22.25;56.99;96413.88;5001603;28;20796;-30
2023/10/30 09:13:15;;;;;;;4.80;2.67;;;;;;;22.26;57.18;96417.28;5000288;28;20631;-39
2023/10/30 09:15:41;;;;;;;6.03;2.53;;;;;;;22.26;57.26;96422.41;5001494;28;20226;-29
2023/10/30 09:18:08;;;;;;;3.83;2.80;;;;;;;22.25;57.34;96413.00;4998631;28;20210;-38
2023/10/30 09:20:35;;;;;;;3.67;2.90;;;;;;;22.24;57.57;96417.28;5000565;28;20214;-30
2023/10/30 09:23:02;;;;;;;3.17;2.70;;;;;;;22.24;57.68;96426.66;5000062;28;20766;-30
2023/10/30 09:25:28;;;;;;;4.97;2.60;;;;;;;22.23;57.71;96420.66;5000208;28;20659;-36
2023/10/30 09:27:57;;;;;;;3.37;2.53;;;;;;;22.24;57.79;96424.97;4999258;28;20276;-30
2023/10/30 09:30:29;;;;;;;4.50;2.70;;;;;;;22.24;57.77;96408.72;4996341;28;20337;-30
2023/10/30 09:32:58;;;;;;;3.37;2.60;;;;;;;22.24;57.99;96408.72;5000165;28;20202;-26
2023/10/30 09:35:32;;;;;;;5.70;2.90;;;;;;;22.23;58.05;96415.53;4999602;28;20352;-30
2023/10/30 09:37:58;;;;;;;3.20;2.60;;;;;;;22.24;58.26;96411.28;4999313;28;20711;-28
2023/10/30 09:40:26;;;;;;;5.40;2.90;;;;;;;22.23;58.14;96399.34;5000798;28;20226;-31
2023/10/30 09:42:53;;;;;;;5.63;2.70;;;;;;;22.24;58.13;96401.06;4997846;28;20662;-33
2023/10/30 09:45:23;;;;;;;8.70;2.70;;;;;;;22.24;58.12;96393.38;4999418;28;20302;-31
2023/10/30 09:47:52;;;;;;;4.07;2.50;;;;;;;22.23;58.30;96384.81;4997335;28;20206;-27
2023/10/30 09:50:19;;;;;;;2.80;2.37;;;;;;;22.20;58.23;96382.25;4999706;28;20882;-29
2023/10/30 09:52:52;;;;;;;3.33;2.53;;;;;;;22.22;58.29;96385.69;4997562;28;20296;-27
2023/10/30 09:55:21;;;;;;;4.40;2.73;;;;;;;22.22;58.31;96384.81;4998374;28;20210;-26
2023/10/30 09:57:48;;;;;;;3.00;2.53;;;;;;;22.21;58.23;96383.97;4998127;28;20724;-32
2023/10/30 10:00:15;;;;;;;3.73;2.40;;;;;;;22.20;58.42;96378.84;4998920;28;20206;-40
2023/10/30 10:02:42;;;;;;;3.77;2.60;;;;;;;22.20;58.49;96376.28;4999105;28;20210;-27
2023/10/30 10:05:09;;;;;;;3.07;2.10;;;;;;;22.20;58.48;96372.00;4999189;28;20210;-30
2023/10/30 10:07:36;;;;;;;3.30;2.33;;;;;;;22.21;58.24;96378.00;4999582;28;20306;-31
2023/10/30 10:10:04;;;;;;;3.90;2.50;;;;;;;22.19;58.46;96365.19;4999686;28;20569;-31
2023/10/30 10:12:30;;;;;;;4.23;2.50;;;;;;;22.21;58.59;96367.75;5000607;28;20774;-27
2023/10/30 10:14:57;;;;;;;4.97;2.50;;;;;;;22.21;58.46;96357.53;4996988;28;20225;-27
2023/10/30 10:17:24;;;;;;;4.00;2.23;;;;;;;22.22;58.61;96362.66;4998567;28;20596;-37
2023/10/30 10:19:50;;;;;;;3.47;2.30;;;;;;;22.22;58.77;96349.00;4999853;28;20213;-28
2023/10/30 10:22:30;;;;;;;4.23;2.57;;;;;;;22.23;58.94;96351.56;4997297;28;20301;-27
2023/10/30 10:24:57;;;;;;;3.57;2.73;;;;;;;22.24;58.85;96349.88;5000631;28;20300;-32
2023/10/30 10:27:24;;;;;;;4.73;2.50;;;;;;;22.24;58.90;96342.19;4998434;28;20320;-31
2023/10/30 10:29:54;;;;;;;3.40;2.43;;;;;;;22.24;58.75;96339.63;5000752;28;20301;-27
2023/10/30 10:32:28;;;;;;;3.33;2.50;;;;;;;22.23;58.73;96331.09;4998316;28;20659;-31
2023/10/30 10:35:07;;;;;;;3.30;2.30;;;;;;;22.23;58.80;96322.56;4995753;28;20195;-27
2023/10/30 10:37:33;;;;;;;3.73;2.40;;;;;;;22.23;58.88;96310.63;4999296;28;20223;-26
2023/10/30 10:40:02;;;;;;;3.33;2.23;;;;;;;22.22;58.85;96303.78;4998900;28;20281;-28
2023/10/30 10:42:29;;;;;;;4.43;2.77;;;;;;;22.20;59.19;96297.78;5003826;28;20215;-27
2023/10/30 10:44:56;;;;;;;7.57;2.37;;;;;;;22.21;59.03;96304.66;4995797;28;20203;-34
2023/10/30 10:47:23;;;;;;;3.73;2.57;;;;;;;22.22;58.83;96300.38;4999328;28;20659;-28
2023/10/30 10:49:50;;;;;;;3.20;2.40;;;;;;;22.21;59.19;96299.53;4993699;28;20300;-27
2023/10/30 10:52:19;;;;;;;3.17;2.33;;;;;;;22.22;59.04;96301.22;5000639;28;20233;-27
2023/10/30 10:55:02;;;;;;;3.67;2.43;;;;;;;22.22;59.22;96297.81;4993478;28;20199;-37
2023/10/30 10:57:34;;;;;;;5.97;2.60;;;;;;;22.23;59.30;96294.44;5006325;28;20244;-26
2023/10/30 11:00:03;;;;;;;4.43;2.73;;;;;;;22.18;59.38;96279.03;5010929;28;20633;-27
2023/10/30 11:02:30;;;;;;;3.20;2.43;;;;;;;22.21;59.40;96273.94;4979969;28;20233;-29
2023/10/30 11:04:57;;;;;;;5.73;3.13;;;;;;;22.22;59.18;96275.63;4999822;28;20210;-37
2023/10/30 11:07:28;;;;;;;5.07;2.63;;;;;;;22.22;59.33;96275.63;4996907;28;20705;-35
2023/10/30 11:09:57;;;;;;;3.00;2.40;;;;;;;22.22;59.45;96267.09;4996701;28;20265;-34
2023/10/30 11:12:40;;;;;;;6.00;2.63;;;;;;;22.22;59.52;96267.97;4994148;28;20210;-34
2023/10/30 11:15:20;;;;;;;6.27;3.10;;;;;;;22.23;59.23;96261.16;4996413;28;20830;-28
2023/10/30 11:18:15;;;;;;;8.57;2.70;;;;;;;22.22;59.40;96265.41;4998300;28;20276;-28
2023/10/30 11:20:42;;;;;;;4.53;3.23;;;;;;;22.21;59.39;96253.47;4998329;28;20368;-37
2023/10/30 11:23:09;;;;;;;5.13;2.63;;;;;;;22.19;59.31;96251.72;4999490;28;20219;-27
2023/10/30 11:25:35;;;;;;;4.50;2.80;;;;;;;22.21;59.53;96257.72;4999605;28;20317;-33
2023/10/30 11:28:02;;;;;;;4.47;2.70;;;;;;;22.17;59.43;96243.19;4994762;28;20211;-30
2023/10/30 11:30:31;;;;;;;5.83;2.70;;;;;;;22.19;59.70;96244.91;4998653;28;20206;-34
2023/10/30 11:32:58;;;;;;;4.97;2.57;;;;;;;22.19;59.52;96232.13;4998819;28;20297;-27
2023/10/30 11:35:24;;;;;;;3.20;2.40;;;;;;;22.19;59.73;96238.94;4996820;28;20234;-29
2023/10/30 11:37:52;;;;;;;4.87;2.73;;;;;;;22.19;59.67;96231.25;4997186;28;20600;-36